sensor_id;sensor_type;location;lat;lon;timestamp;temperature;humidity
16441;DHT22;8330;-33.858;151.184;2023-03-31T00:00:33;21.60;94.20
16441;DHT22;8330;-33.858;151.184;2023-03-31T00:03:04;21.80;93.90
16441;DHT22;8330;-33.858;151.184;2023-03-31T00:05:39;21.80;93.20
16441;DHT22;8330;-33.858;151.184;2023-03-31T00:08:15;21.80;92.50
16441;DHT22;8330;-33.858;151.184;2023-03-31T00:10:46;21.80;93.40
16441;DHT22;8330;-33.858;151.184;2023-03-31T00:13:17;21.70;92.60
16441;DHT22;8330;-33.858;151.184;2023-03-31T00:15:48;21.90;93.00
16441;DHT22;8330;-33.858;151.184;2023-03-31T00:18:19;22.10;93.40
16441;DHT22;8330;-33.858;151.184;2023-03-31T00:20:57;22.20;92.90
16441;DHT22;8330;-33.858;151.184;2023-03-31T00:23:29;22.40;92.30
16441;DHT22;8330;-33.858;151.184;2023-03-31T00:26:00;22.40;89.50
16441;DHT22;8330;-33.858;151.184;2023-03-31T00:28:31;22.40;90.00
16441;DHT22;8330;-33.858;151.184;2023-03-31T00:31:03;22.20;88.90
16441;DHT22;8330;-33.858;151.184;2023-03-31T00:33:35;22.20;89.30
16441;DHT22;8330;-33.858;151.184;2023-03-31T00:36:08;22.40;89.70
16441;DHT22;8330;-33.858;151.184;2023-03-31T00:38:40;22.50;88.60
16441;DHT22;8330;-33.858;151.184;2023-03-31T00:41:13;22.70;87.40
16441;DHT22;8330;-33.858;151.184;2023-03-31T00:44:01;22.80;86.00
16441;DHT22;8330;-33.858;151.184;2023-03-31T00:46:37;22.90;84.50
16441;DHT22;8330;-33.858;151.184;2023-03-31T00:49:15;23.00;83.20
16441;DHT22;8330;-33.858;151.184;2023-03-31T00:51:51;23.10;82.20
16441;DHT22;8330;-33.858;151.184;2023-03-31T00:54:25;23.10;78.00
16441;DHT22;8330;-33.858;151.184;2023-03-31T00:56:57;23.10;78.00
16441;DHT22;8330;-33.858;151.184;2023-03-31T00:59:33;23.10;79.10
16441;DHT22;8330;-33.858;151.184;2023-03-31T01:02:05;23.00;78.70
16441;DHT22;8330;-33.858;151.184;2023-03-31T01:04:40;23.10;79.70
16441;DHT22;8330;-33.858;151.184;2023-03-31T01:07:19;23.20;78.80
16441;DHT22;8330;-33.858;151.184;2023-03-31T01:09:54;23.30;79.40
16441;DHT22;8330;-33.858;151.184;2023-03-31T01:12:27;23.50;77.20
16441;DHT22;8330;-33.858;151.184;2023-03-31T01:14:59;23.50;76.40
16441;DHT22;8330;-33.858;151.184;2023-03-31T01:17:31;23.70;74.40
16441;DHT22;8330;-33.858;151.184;2023-03-31T01:20:08;23.70;72.20
16441;DHT22;8330;-33.858;151.184;2023-03-31T01:23:12;23.70;73.00
16441;DHT22;8330;-33.858;151.184;2023-03-31T01:28:51;23.80;67.90
16441;DHT22;8330;-33.858;151.184;2023-03-31T01:34:55;23.80;67.00
16441;DHT22;8330;-33.858;151.184;2023-03-31T01:40:59;23.80;67.60
16441;DHT22;8330;-33.858;151.184;2023-03-31T01:43:35;23.90;68.50
16441;DHT22;8330;-33.858;151.184;2023-03-31T01:46:16;24.10;70.00
16441;DHT22;8330;-33.858;151.184;2023-03-31T01:48:56;24.20;65.10
16441;DHT22;8330;-33.858;151.184;2023-03-31T01:51:34;24.10;63.90
16441;DHT22;8330;-33.858;151.184;2023-03-31T01:54:11;24.10;62.50
16441;DHT22;8330;-33.858;151.184;2023-03-31T01:56:50;24.10;60.50
16441;DHT22;8330;-33.858;151.184;2023-03-31T01:59:26;24.20;62.20
16441;DHT22;8330;-33.858;151.184;2023-03-31T02:02:00;24.40;61.90
16441;DHT22;8330;-33.858;151.184;2023-03-31T02:04:35;24.50;62.50
16441;DHT22;8330;-33.858;151.184;2023-03-31T02:07:13;24.50;62.00
16441;DHT22;8330;-33.858;151.184;2023-03-31T02:09:48;24.50;62.50
16441;DHT22;8330;-33.858;151.184;2023-03-31T02:12:23;24.60;61.00
16441;DHT22;8330;-33.858;151.184;2023-03-31T02:14:56;24.70;59.60
16441;DHT22;8330;-33.858;151.184;2023-03-31T02:17:29;24.70;58.50
16441;DHT22;8330;-33.858;151.184;2023-03-31T02:20:04;24.80;58.20
16441;DHT22;8330;-33.858;151.184;2023-03-31T02:22:46;24.90;58.40
16441;DHT22;8330;-33.858;151.184;2023-03-31T02:25:21;24.90;58.20
16441;DHT22;8330;-33.858;151.184;2023-03-31T02:27:56;24.90;58.80
16441;DHT22;8330;-33.858;151.184;2023-03-31T02:30:33;25.10;57.70
16441;DHT22;8330;-33.858;151.184;2023-03-31T02:33:06;25.10;57.30
16441;DHT22;8330;-33.858;151.184;2023-03-31T02:35:37;25.20;56.80
16441;DHT22;8330;-33.858;151.184;2023-03-31T02:38:08;25.20;57.40
16441;DHT22;8330;-33.858;151.184;2023-03-31T02:40:40;25.30;56.70
16441;DHT22;8330;-33.858;151.184;2023-03-31T02:43:13;25.20;54.00
16441;DHT22;8330;-33.858;151.184;2023-03-31T02:45:45;25.30;55.80
16441;DHT22;8330;-33.858;151.184;2023-03-31T02:48:18;25.30;55.80
16441;DHT22;8330;-33.858;151.184;2023-03-31T02:51:26;25.50;54.00
16441;DHT22;8330;-33.858;151.184;2023-03-31T02:54:16;25.40;54.00
16441;DHT22;8330;-33.858;151.184;2023-03-31T02:57:04;25.40;54.30
16441;DHT22;8330;-33.858;151.184;2023-03-31T02:59:47;25.70;54.20
16441;DHT22;8330;-33.858;151.184;2023-03-31T03:02:26;25.60;53.80
16441;DHT22;8330;-33.858;151.184;2023-03-31T03:05:17;25.70;53.70
16441;DHT22;8330;-33.858;151.184;2023-03-31T03:07:57;25.80;53.80
16441;DHT22;8330;-33.858;151.184;2023-03-31T03:10:38;25.90;52.80
16441;DHT22;8330;-33.858;151.184;2023-03-31T03:13:19;25.90;53.60
16441;DHT22;8330;-33.858;151.184;2023-03-31T03:15:59;26.10;54.00
16441;DHT22;8330;-33.858;151.184;2023-03-31T03:18:31;26.20;54.60
16441;DHT22;8330;-33.858;151.184;2023-03-31T03:21:03;26.30;53.10
16441;DHT22;8330;-33.858;151.184;2023-03-31T03:23:34;26.30;52.70
16441;DHT22;8330;-33.858;151.184;2023-03-31T03:26:05;26.40;53.80
16441;DHT22;8330;-33.858;151.184;2023-03-31T03:28:38;26.40;52.80
16441;DHT22;8330;-33.858;151.184;2023-03-31T03:31:12;26.30;51.50
16441;DHT22;8330;-33.858;151.184;2023-03-31T03:33:43;26.40;55.10
16441;DHT22;8330;-33.858;151.184;2023-03-31T03:36:14;26.50;57.50
16441;DHT22;8330;-33.858;151.184;2023-03-31T03:38:45;26.50;58.70
16441;DHT22;8330;-33.858;151.184;2023-03-31T03:41:16;26.40;58.90
16441;DHT22;8330;-33.858;151.184;2023-03-31T03:43:47;26.40;59.50
16441;DHT22;8330;-33.858;151.184;2023-03-31T03:46:21;26.20;59.40
16441;DHT22;8330;-33.858;151.184;2023-03-31T03:48:52;26.10;60.00
16441;DHT22;8330;-33.858;151.184;2023-03-31T03:51:24;26.10;59.10
16441;DHT22;8330;-33.858;151.184;2023-03-31T03:53:55;26.20;59.50
16441;DHT22;8330;-33.858;151.184;2023-03-31T03:56:26;26.10;60.50
16441;DHT22;8330;-33.858;151.184;2023-03-31T03:58:57;26.10;61.00
16441;DHT22;8330;-33.858;151.184;2023-03-31T04:01:30;26.10;60.30
16441;DHT22;8330;-33.858;151.184;2023-03-31T04:04:01;26.00;60.40
16441;DHT22;8330;-33.858;151.184;2023-03-31T04:06:32;26.00;61.00
16441;DHT22;8330;-33.858;151.184;2023-03-31T04:09:04;25.80;61.70
16441;DHT22;8330;-33.858;151.184;2023-03-31T04:11:36;25.80;61.10
16441;DHT22;8330;-33.858;151.184;2023-03-31T04:14:07;25.80;61.80
16441;DHT22;8330;-33.858;151.184;2023-03-31T04:16:41;25.70;61.40
16441;DHT22;8330;-33.858;151.184;2023-03-31T04:19:13;25.60;62.90
16441;DHT22;8330;-33.858;151.184;2023-03-31T04:21:45;25.60;62.90
16441;DHT22;8330;-33.858;151.184;2023-03-31T04:24:25;25.40;62.40
16441;DHT22;8330;-33.858;151.184;2023-03-31T04:26:58;25.30;63.90
16441;DHT22;8330;-33.858;151.184;2023-03-31T04:29:29;25.20;64.20
16441;DHT22;8330;-33.858;151.184;2023-03-31T04:32:06;25.20;65.40
16441;DHT22;8330;-33.858;151.184;2023-03-31T04:34:37;25.10;64.90
16441;DHT22;8330;-33.858;151.184;2023-03-31T04:37:08;25.10;64.60
16441;DHT22;8330;-33.858;151.184;2023-03-31T04:39:39;25.20;63.60
16441;DHT22;8330;-33.858;151.184;2023-03-31T04:42:13;25.10;63.60
16441;DHT22;8330;-33.858;151.184;2023-03-31T04:44:46;25.10;64.40
16441;DHT22;8330;-33.858;151.184;2023-03-31T04:47:19;25.10;62.90
16441;DHT22;8330;-33.858;151.184;2023-03-31T04:49:53;25.00;64.00
16441;DHT22;8330;-33.858;151.184;2023-03-31T04:52:24;25.00;62.80
16441;DHT22;8330;-33.858;151.184;2023-03-31T04:54:56;25.00;63.20
16441;DHT22;8330;-33.858;151.184;2023-03-31T04:57:27;25.00;62.80
16441;DHT22;8330;-33.858;151.184;2023-03-31T04:59:58;24.90;63.90
16441;DHT22;8330;-33.858;151.184;2023-03-31T05:02:37;24.90;62.60
16441;DHT22;8330;-33.858;151.184;2023-03-31T05:05:09;24.80;63.80
16441;DHT22;8330;-33.858;151.184;2023-03-31T05:07:40;24.90;65.90
16441;DHT22;8330;-33.858;151.184;2023-03-31T05:10:11;24.80;67.20
16441;DHT22;8330;-33.858;151.184;2023-03-31T05:12:42;24.90;66.20
16441;DHT22;8330;-33.858;151.184;2023-03-31T05:15:14;24.90;66.00
16441;DHT22;8330;-33.858;151.184;2023-03-31T05:17:47;24.90;65.90
16441;DHT22;8330;-33.858;151.184;2023-03-31T05:20:19;24.70;66.10
16441;DHT22;8330;-33.858;151.184;2023-03-31T05:22:51;24.70;67.20
16441;DHT22;8330;-33.858;151.184;2023-03-31T05:25:22;24.70;68.30
16441;DHT22;8330;-33.858;151.184;2023-03-31T05:28:00;24.70;67.80
16441;DHT22;8330;-33.858;151.184;2023-03-31T05:30:31;24.70;67.90
16441;DHT22;8330;-33.858;151.184;2023-03-31T05:33:04;24.60;69.30
16441;DHT22;8330;-33.858;151.184;2023-03-31T05:35:35;24.60;69.90
16441;DHT22;8330;-33.858;151.184;2023-03-31T05:38:06;24.70;70.30
16441;DHT22;8330;-33.858;151.184;2023-03-31T05:40:38;24.60;70.20
16441;DHT22;8330;-33.858;151.184;2023-03-31T05:43:09;24.60;70.20
16441;DHT22;8330;-33.858;151.184;2023-03-31T05:45:40;24.60;70.40
16441;DHT22;8330;-33.858;151.184;2023-03-31T05:48:13;24.60;69.80
16441;DHT22;8330;-33.858;151.184;2023-03-31T05:50:44;24.70;68.80
16441;DHT22;8330;-33.858;151.184;2023-03-31T05:53:15;24.80;68.20
16441;DHT22;8330;-33.858;151.184;2023-03-31T05:55:46;24.90;65.30
16441;DHT22;8330;-33.858;151.184;2023-03-31T05:58:17;24.90;64.40
16441;DHT22;8330;-33.858;151.184;2023-03-31T06:00:49;24.90;63.70
16441;DHT22;8330;-33.858;151.184;2023-03-31T06:03:22;24.90;63.60
16441;DHT22;8330;-33.858;151.184;2023-03-31T06:05:53;24.90;64.00
16441;DHT22;8330;-33.858;151.184;2023-03-31T06:08:24;25.00;63.20
16441;DHT22;8330;-33.858;151.184;2023-03-31T06:10:55;25.30;62.30
16441;DHT22;8330;-33.858;151.184;2023-03-31T06:13:27;25.30;63.80
16441;DHT22;8330;-33.858;151.184;2023-03-31T06:15:59;25.50;63.70
16441;DHT22;8330;-33.858;151.184;2023-03-31T06:18:33;25.50;63.00
16441;DHT22;8330;-33.858;151.184;2023-03-31T06:21:04;25.20;63.60
16441;DHT22;8330;-33.858;151.184;2023-03-31T06:23:36;25.40;65.50
16441;DHT22;8330;-33.858;151.184;2023-03-31T06:26:07;25.50;66.20
16441;DHT22;8330;-33.858;151.184;2023-03-31T06:28:39;25.80;66.10
16441;DHT22;8330;-33.858;151.184;2023-03-31T06:31:12;25.90;65.40
16441;DHT22;8330;-33.858;151.184;2023-03-31T06:33:47;25.90;65.10
16441;DHT22;8330;-33.858;151.184;2023-03-31T06:36:20;25.90;64.30
16441;DHT22;8330;-33.858;151.184;2023-03-31T06:38:51;26.00;64.40
16441;DHT22;8330;-33.858;151.184;2023-03-31T06:41:25;26.10;63.60
16441;DHT22;8330;-33.858;151.184;2023-03-31T06:43:56;26.30;62.20
16441;DHT22;8330;-33.858;151.184;2023-03-31T06:46:27;26.10;61.10
16441;DHT22;8330;-33.858;151.184;2023-03-31T06:49:00;25.80;62.50
16441;DHT22;8330;-33.858;151.184;2023-03-31T06:51:31;25.80;63.10
16441;DHT22;8330;-33.858;151.184;2023-03-31T06:54:02;26.00;63.40
16441;DHT22;8330;-33.858;151.184;2023-03-31T06:56:33;25.80;63.90
16441;DHT22;8330;-33.858;151.184;2023-03-31T06:59:04;25.60;65.00
16441;DHT22;8330;-33.858;151.184;2023-03-31T07:01:35;25.40;65.70
16441;DHT22;8330;-33.858;151.184;2023-03-31T07:04:11;25.10;66.40
16441;DHT22;8330;-33.858;151.184;2023-03-31T07:06:42;24.80;67.30
16441;DHT22;8330;-33.858;151.184;2023-03-31T07:09:14;24.70;67.90
16441;DHT22;8330;-33.858;151.184;2023-03-31T07:11:45;24.60;67.80
16441;DHT22;8330;-33.858;151.184;2023-03-31T07:14:16;24.50;69.20
16441;DHT22;8330;-33.858;151.184;2023-03-31T07:16:47;24.30;69.70
16441;DHT22;8330;-33.858;151.184;2023-03-31T07:19:21;24.20;71.00
16441;DHT22;8330;-33.858;151.184;2023-03-31T07:21:52;24.10;71.80
16441;DHT22;8330;-33.858;151.184;2023-03-31T07:24:23;24.00;72.40
16441;DHT22;8330;-33.858;151.184;2023-03-31T07:26:54;23.90;72.30
16441;DHT22;8330;-33.858;151.184;2023-03-31T07:29:25;23.80;73.00
16441;DHT22;8330;-33.858;151.184;2023-03-31T07:31:57;23.70;72.90
16441;DHT22;8330;-33.858;151.184;2023-03-31T07:34:30;23.60;73.50
16441;DHT22;8330;-33.858;151.184;2023-03-31T07:37:01;23.60;74.20
16441;DHT22;8330;-33.858;151.184;2023-03-31T07:39:32;23.60;75.10
16441;DHT22;8330;-33.858;151.184;2023-03-31T07:42:05;23.50;76.40
16441;DHT22;8330;-33.858;151.184;2023-03-31T07:44:37;23.50;76.10
16441;DHT22;8330;-33.858;151.184;2023-03-31T07:47:08;23.40;77.20
16441;DHT22;8330;-33.858;151.184;2023-03-31T07:49:41;23.40;78.50
16441;DHT22;8330;-33.858;151.184;2023-03-31T07:52:12;23.30;77.80
16441;DHT22;8330;-33.858;151.184;2023-03-31T07:54:44;23.20;78.60
16441;DHT22;8330;-33.858;151.184;2023-03-31T07:57:15;23.20;80.50
16441;DHT22;8330;-33.858;151.184;2023-03-31T07:59:47;23.20;80.30
16441;DHT22;8330;-33.858;151.184;2023-03-31T08:02:18;23.10;81.10
16441;DHT22;8330;-33.858;151.184;2023-03-31T08:04:52;23.10;81.00
16441;DHT22;8330;-33.858;151.184;2023-03-31T08:07:23;23.10;81.70
16441;DHT22;8330;-33.858;151.184;2023-03-31T08:09:57;23.00;82.30
16441;DHT22;8330;-33.858;151.184;2023-03-31T08:12:29;23.00;82.80
16441;DHT22;8330;-33.858;151.184;2023-03-31T08:15:00;23.00;83.80
16441;DHT22;8330;-33.858;151.184;2023-03-31T08:17:31;23.00;83.80
16441;DHT22;8330;-33.858;151.184;2023-03-31T08:20:04;22.90;84.40
16441;DHT22;8330;-33.858;151.184;2023-03-31T08:22:37;22.90;84.30
16441;DHT22;8330;-33.858;151.184;2023-03-31T08:25:09;22.90;85.30
16441;DHT22;8330;-33.858;151.184;2023-03-31T08:27:41;22.90;85.00
16441;DHT22;8330;-33.858;151.184;2023-03-31T08:30:16;22.80;84.10
16441;DHT22;8330;-33.858;151.184;2023-03-31T08:32:47;22.80;84.20
16441;DHT22;8330;-33.858;151.184;2023-03-31T08:35:20;22.80;85.50
16441;DHT22;8330;-33.858;151.184;2023-03-31T08:37:52;22.80;85.60
16441;DHT22;8330;-33.858;151.184;2023-03-31T08:40:24;22.80;86.50
16441;DHT22;8330;-33.858;151.184;2023-03-31T08:42:59;22.80;87.10
16441;DHT22;8330;-33.858;151.184;2023-03-31T08:45:34;22.70;87.50
16441;DHT22;8330;-33.858;151.184;2023-03-31T08:48:09;22.70;88.80
16441;DHT22;8330;-33.858;151.184;2023-03-31T08:50:52;22.70;88.70
16441;DHT22;8330;-33.858;151.184;2023-03-31T08:53:27;22.80;89.50
16441;DHT22;8330;-33.858;151.184;2023-03-31T08:56:00;22.70;90.20
16441;DHT22;8330;-33.858;151.184;2023-03-31T08:58:38;22.70;90.90
16441;DHT22;8330;-33.858;151.184;2023-03-31T09:01:17;22.70;90.90
16441;DHT22;8330;-33.858;151.184;2023-03-31T09:04:08;22.70;90.90
16441;DHT22;8330;-33.858;151.184;2023-03-31T09:06:49;22.60;91.10
16441;DHT22;8330;-33.858;151.184;2023-03-31T09:09:28;22.60;91.60
16441;DHT22;8330;-33.858;151.184;2023-03-31T09:12:06;22.60;92.80
16441;DHT22;8330;-33.858;151.184;2023-03-31T09:14:42;22.60;93.50
16441;DHT22;8330;-33.858;151.184;2023-03-31T09:17:22;22.60;93.30
16441;DHT22;8330;-33.858;151.184;2023-03-31T09:20:14;22.50;93.20
16441;DHT22;8330;-33.858;151.184;2023-03-31T09:22:51;22.50;93.10
16441;DHT22;8330;-33.858;151.184;2023-03-31T09:25:26;22.50;94.30
16441;DHT22;8330;-33.858;151.184;2023-03-31T09:28:03;22.50;95.50
16441;DHT22;8330;-33.858;151.184;2023-03-31T09:30:37;22.40;95.20
16441;DHT22;8330;-33.858;151.184;2023-03-31T09:33:13;22.40;94.70
16441;DHT22;8330;-33.858;151.184;2023-03-31T09:35:45;22.30;94.90
16441;DHT22;8330;-33.858;151.184;2023-03-31T09:38:18;22.30;95.50
16441;DHT22;8330;-33.858;151.184;2023-03-31T09:40:49;22.40;95.80
16441;DHT22;8330;-33.858;151.184;2023-03-31T09:43:23;22.30;96.20
16441;DHT22;8330;-33.858;151.184;2023-03-31T09:45:54;22.40;96.00
16441;DHT22;8330;-33.858;151.184;2023-03-31T09:48:28;22.30;96.20
16441;DHT22;8330;-33.858;151.184;2023-03-31T09:51:01;22.40;96.40
16441;DHT22;8330;-33.858;151.184;2023-03-31T09:53:39;22.40;96.80
16441;DHT22;8330;-33.858;151.184;2023-03-31T09:56:10;22.30;97.10
16441;DHT22;8330;-33.858;151.184;2023-03-31T09:58:43;22.40;95.70
16441;DHT22;8330;-33.858;151.184;2023-03-31T10:01:15;22.40;94.10
16441;DHT22;8330;-33.858;151.184;2023-03-31T10:03:49;22.30;93.50
16441;DHT22;8330;-33.858;151.184;2023-03-31T10:06:21;22.40;93.20
16441;DHT22;8330;-33.858;151.184;2023-03-31T10:08:58;22.30;93.40
16441;DHT22;8330;-33.858;151.184;2023-03-31T10:11:32;22.30;93.80
16441;DHT22;8330;-33.858;151.184;2023-03-31T10:14:05;22.30;93.70
16441;DHT22;8330;-33.858;151.184;2023-03-31T10:16:48;22.30;94.10
16441;DHT22;8330;-33.858;151.184;2023-03-31T10:19:22;22.30;94.00
16441;DHT22;8330;-33.858;151.184;2023-03-31T10:21:57;22.30;95.20
16441;DHT22;8330;-33.858;151.184;2023-03-31T10:24:36;22.30;95.00
16441;DHT22;8330;-33.858;151.184;2023-03-31T10:27:17;22.30;94.60
16441;DHT22;8330;-33.858;151.184;2023-03-31T10:29:53;22.30;95.00
16441;DHT22;8330;-33.858;151.184;2023-03-31T10:32:26;22.30;94.50
16441;DHT22;8330;-33.858;151.184;2023-03-31T10:34:58;22.30;94.30
16441;DHT22;8330;-33.858;151.184;2023-03-31T10:37:35;22.30;94.70
16441;DHT22;8330;-33.858;151.184;2023-03-31T10:40:17;22.40;94.40
16441;DHT22;8330;-33.858;151.184;2023-03-31T10:42:57;22.30;94.60
16441;DHT22;8330;-33.858;151.184;2023-03-31T10:45:30;22.30;94.50
16441;DHT22;8330;-33.858;151.184;2023-03-31T10:48:17;22.30;95.00
16441;DHT22;8330;-33.858;151.184;2023-03-31T10:50:48;22.30;95.00
16441;DHT22;8330;-33.858;151.184;2023-03-31T10:53:20;22.30;95.00
16441;DHT22;8330;-33.858;151.184;2023-03-31T10:56:02;22.30;95.40
16441;DHT22;8330;-33.858;151.184;2023-03-31T10:58:53;22.30;96.40
16441;DHT22;8330;-33.858;151.184;2023-03-31T11:01:32;22.30;96.10
16441;DHT22;8330;-33.858;151.184;2023-03-31T11:04:28;22.20;95.30
16441;DHT22;8330;-33.858;151.184;2023-03-31T11:07:10;22.20;96.10
16441;DHT22;8330;-33.858;151.184;2023-03-31T11:09:50;22.10;96.10
16441;DHT22;8330;-33.858;151.184;2023-03-31T11:12:31;22.20;96.50
16441;DHT22;8330;-33.858;151.184;2023-03-31T11:15:16;22.20;97.30
16441;DHT22;8330;-33.858;151.184;2023-03-31T11:18:09;22.20;97.80
16441;DHT22;8330;-33.858;151.184;2023-03-31T11:20:49;22.30;98.10
16441;DHT22;8330;-33.858;151.184;2023-03-31T11:23:29;22.30;98.70
16441;DHT22;8330;-33.858;151.184;2023-03-31T11:26:09;22.20;98.20
16441;DHT22;8330;-33.858;151.184;2023-03-31T11:28:58;22.10;98.10
16441;DHT22;8330;-33.858;151.184;2023-03-31T11:31:39;22.10;98.50
16441;DHT22;8330;-33.858;151.184;2023-03-31T11:34:33;22.10;98.00
16441;DHT22;8330;-33.858;151.184;2023-03-31T11:40:28;22.10;98.50
16441;DHT22;8330;-33.858;151.184;2023-03-31T11:43:06;22.00;98.60
16441;DHT22;8330;-33.858;151.184;2023-03-31T11:45:45;22.00;99.10
16441;DHT22;8330;-33.858;151.184;2023-03-31T11:48:24;22.00;99.30
16441;DHT22;8330;-33.858;151.184;2023-03-31T11:50:58;22.00;99.40
16441;DHT22;8330;-33.858;151.184;2023-03-31T11:53:32;22.00;99.90
16441;DHT22;8330;-33.858;151.184;2023-03-31T11:56:04;22.00;99.90
16441;DHT22;8330;-33.858;151.184;2023-03-31T11:58:40;22.00;99.90
16441;DHT22;8330;-33.858;151.184;2023-03-31T12:01:20;22.00;99.90
16441;DHT22;8330;-33.858;151.184;2023-03-31T12:03:59;21.90;99.90
16441;DHT22;8330;-33.858;151.184;2023-03-31T12:06:33;21.90;99.50
16441;DHT22;8330;-33.858;151.184;2023-03-31T12:09:12;21.80;99.80
16441;DHT22;8330;-33.858;151.184;2023-03-31T12:11:47;21.80;99.40
16441;DHT22;8330;-33.858;151.184;2023-03-31T12:14:29;21.80;99.90
16441;DHT22;8330;-33.858;151.184;2023-03-31T12:17:09;21.70;99.20
16441;DHT22;8330;-33.858;151.184;2023-03-31T12:19:45;21.70;99.30
16441;DHT22;8330;-33.858;151.184;2023-03-31T12:22:24;21.60;99.90
16441;DHT22;8330;-33.858;151.184;2023-03-31T12:25:21;21.60;99.70
16441;DHT22;8330;-33.858;151.184;2023-03-31T12:28:13;21.60;99.30
16441;DHT22;8330;-33.858;151.184;2023-03-31T12:30:46;21.50;98.30
16441;DHT22;8330;-33.858;151.184;2023-03-31T12:33:23;21.50;98.40
16441;DHT22;8330;-33.858;151.184;2023-03-31T12:36:17;21.40;98.40
16441;DHT22;8330;-33.858;151.184;2023-03-31T12:39:02;21.40;98.20
16441;DHT22;8330;-33.858;151.184;2023-03-31T12:41:46;21.40;97.50
16441;DHT22;8330;-33.858;151.184;2023-03-31T12:44:32;21.40;96.90
16441;DHT22;8330;-33.858;151.184;2023-03-31T12:47:29;21.40;97.30
16441;DHT22;8330;-33.858;151.184;2023-03-31T12:50:36;21.40;97.70
16441;DHT22;8330;-33.858;151.184;2023-03-31T12:53:15;21.30;97.60
16441;DHT22;8330;-33.858;151.184;2023-03-31T12:55:50;21.30;97.70
16441;DHT22;8330;-33.858;151.184;2023-03-31T12:58:42;21.20;97.30
16441;DHT22;8330;-33.858;151.184;2023-03-31T13:01:16;21.30;96.60
16441;DHT22;8330;-33.858;151.184;2023-03-31T13:03:49;21.30;96.80
16441;DHT22;8330;-33.858;151.184;2023-03-31T13:09:48;21.30;97.60
16441;DHT22;8330;-33.858;151.184;2023-03-31T13:12:24;21.30;97.60
16441;DHT22;8330;-33.858;151.184;2023-03-31T13:14:56;21.30;97.40
16441;DHT22;8330;-33.858;151.184;2023-03-31T13:17:29;21.20;97.20
16441;DHT22;8330;-33.858;151.184;2023-03-31T13:20:33;21.20;97.20
16441;DHT22;8330;-33.858;151.184;2023-03-31T13:23:13;21.10;97.50
16441;DHT22;8330;-33.858;151.184;2023-03-31T13:25:49;21.10;97.50
16441;DHT22;8330;-33.858;151.184;2023-03-31T13:28:31;21.10;97.70
16441;DHT22;8330;-33.858;151.184;2023-03-31T13:31:04;21.10;96.90
16441;DHT22;8330;-33.858;151.184;2023-03-31T13:33:51;21.00;97.00
16441;DHT22;8330;-33.858;151.184;2023-03-31T13:36:54;21.00;97.20
16441;DHT22;8330;-33.858;151.184;2023-03-31T13:45:53;21.00;97.70
16441;DHT22;8330;-33.858;151.184;2023-03-31T13:48:34;21.00;98.20
16441;DHT22;8330;-33.858;151.184;2023-03-31T13:51:30;21.00;99.00
16441;DHT22;8330;-33.858;151.184;2023-03-31T13:57:34;20.90;97.70
16441;DHT22;8330;-33.858;151.184;2023-03-31T14:00:31;20.90;97.70
16441;DHT22;8330;-33.858;151.184;2023-03-31T14:03:20;20.90;97.00
16441;DHT22;8330;-33.858;151.184;2023-03-31T14:05:56;20.90;96.80
16441;DHT22;8330;-33.858;151.184;2023-03-31T14:08:41;20.90;96.70
16441;DHT22;8330;-33.858;151.184;2023-03-31T14:11:32;20.90;96.90
16441;DHT22;8330;-33.858;151.184;2023-03-31T14:14:04;20.90;97.10
16441;DHT22;8330;-33.858;151.184;2023-03-31T14:16:39;20.80;97.40
16441;DHT22;8330;-33.858;151.184;2023-03-31T14:22:22;20.70;98.30
16441;DHT22;8330;-33.858;151.184;2023-03-31T14:25:05;20.70;98.80
16441;DHT22;8330;-33.858;151.184;2023-03-31T14:27:48;20.70;98.60
16441;DHT22;8330;-33.858;151.184;2023-03-31T14:30:29;20.70;99.40
16441;DHT22;8330;-33.858;151.184;2023-03-31T14:33:16;20.70;99.00
16441;DHT22;8330;-33.858;151.184;2023-03-31T14:35:56;20.60;98.80
16441;DHT22;8330;-33.858;151.184;2023-03-31T14:38:30;20.60;99.20
16441;DHT22;8330;-33.858;151.184;2023-03-31T14:41:02;20.60;99.20
16441;DHT22;8330;-33.858;151.184;2023-03-31T14:43:35;20.60;99.20
16441;DHT22;8330;-33.858;151.184;2023-03-31T14:46:10;20.50;98.90
16441;DHT22;8330;-33.858;151.184;2023-03-31T14:48:45;20.50;98.80
16441;DHT22;8330;-33.858;151.184;2023-03-31T14:51:22;20.50;99.00
16441;DHT22;8330;-33.858;151.184;2023-03-31T14:53:57;20.50;99.30
16441;DHT22;8330;-33.858;151.184;2023-03-31T14:56:31;20.40;99.30
16441;DHT22;8330;-33.858;151.184;2023-03-31T14:59:04;20.40;99.50
16441;DHT22;8330;-33.858;151.184;2023-03-31T15:01:38;20.40;99.90
16441;DHT22;8330;-33.858;151.184;2023-03-31T15:04:13;20.40;99.90
16441;DHT22;8330;-33.858;151.184;2023-03-31T15:06:46;20.40;99.90
16441;DHT22;8330;-33.858;151.184;2023-03-31T15:09:21;20.40;99.90
16441;DHT22;8330;-33.858;151.184;2023-03-31T15:11:55;20.40;99.90
16441;DHT22;8330;-33.858;151.184;2023-03-31T15:14:29;20.30;99.90
16441;DHT22;8330;-33.858;151.184;2023-03-31T15:17:02;20.40;99.90
16441;DHT22;8330;-33.858;151.184;2023-03-31T15:19:38;20.30;99.90
16441;DHT22;8330;-33.858;151.184;2023-03-31T15:22:13;20.30;99.90
16441;DHT22;8330;-33.858;151.184;2023-03-31T15:24:45;20.20;99.90
16441;DHT22;8330;-33.858;151.184;2023-03-31T15:27:29;20.20;99.90
16441;DHT22;8330;-33.858;151.184;2023-03-31T15:30:04;20.20;99.90
16441;DHT22;8330;-33.858;151.184;2023-03-31T15:32:36;20.10;99.90
16441;DHT22;8330;-33.858;151.184;2023-03-31T15:35:21;20.10;99.90
16441;DHT22;8330;-33.858;151.184;2023-03-31T15:37:55;20.20;99.90
16441;DHT22;8330;-33.858;151.184;2023-03-31T15:40:27;20.10;99.90
16441;DHT22;8330;-33.858;151.184;2023-03-31T15:43:04;20.10;99.90
16441;DHT22;8330;-33.858;151.184;2023-03-31T15:45:47;20.10;99.90
16441;DHT22;8330;-33.858;151.184;2023-03-31T15:48:23;20.10;99.90
16441;DHT22;8330;-33.858;151.184;2023-03-31T15:51:03;20.00;99.90
16441;DHT22;8330;-33.858;151.184;2023-03-31T15:53:37;20.00;99.90
16441;DHT22;8330;-33.858;151.184;2023-03-31T15:56:11;20.00;99.90
16441;DHT22;8330;-33.858;151.184;2023-03-31T15:58:58;20.00;99.90
16441;DHT22;8330;-33.858;151.184;2023-03-31T16:01:31;20.00;99.90
16441;DHT22;8330;-33.858;151.184;2023-03-31T16:04:06;20.00;99.90
16441;DHT22;8330;-33.858;151.184;2023-03-31T16:06:46;20.00;99.90
16441;DHT22;8330;-33.858;151.184;2023-03-31T16:09:20;20.00;99.90
16441;DHT22;8330;-33.858;151.184;2023-03-31T16:11:55;20.00;99.90
16441;DHT22;8330;-33.858;151.184;2023-03-31T16:14:28;20.00;99.90
16441;DHT22;8330;-33.858;151.184;2023-03-31T16:17:04;19.90;99.90
16441;DHT22;8330;-33.858;151.184;2023-03-31T16:19:44;19.90;99.90
16441;DHT22;8330;-33.858;151.184;2023-03-31T16:22:21;20.00;99.90
16441;DHT22;8330;-33.858;151.184;2023-03-31T16:24:54;19.90;99.90